の過去48時間の天気

Lulea / Kallax

現在時刻: 1/23 04:25 CET (1/23 03:25 UTC) 以下の時間は現地時間です。

過去48時間のMETAR気象情報
時間 風向 風速(m/s) 視程 気温(℃) 湿度(%) 気圧(hPa) 天気現象
23 03:50 静穏 0 10km以上 -5 79 1012
23 03:20 西北西 4 10km以上 -3 74 1012
23 02:50 西北西 4 10km以上 -3 74 1013
23 02:20 北西 5 10km以上 -3 74 1013
23 01:50 西北西 4 10km以上 -3 74 1014
23 01:20 西北西 4 10km以上 -3 74 1014
23 00:50 北西 5 10km以上 -4 74 1013
23 00:20 西北西 5 10km以上 -3 68 1013
22 23:50 西北西 4 10km以上 -4 74 1014
22 23:20 西北西 3 10km以上 -4 74 1013
22 22:50 西北西 3 10km以上 -4 74 1013
22 22:20 北西 3 10km以上 -4 68 1013
22 21:50 北西 5 10km以上 -4 68 1013
22 21:20 北西 6 10km以上 -4 68 1013
22 20:50 北西 3 10km以上 -4 68 1013
22 20:20 北西 3 10km以上 -4 63 1013
22 19:50 西北西 3 10km以上 -4 68 1014
22 19:20 西北西 4 10km以上 -3 63 1014
22 18:50 北西 4 10km以上 -3 63 1013
22 18:20 北西 3 10km以上 -3 63 1013
22 17:50 北西 3 10km以上 -3 63 1013
22 17:20 北西 4 10km以上 -3 68 1013
22 16:50 北西 5 10km以上 -2 69 1013
22 16:20 北西 5 10km以上 -3 74 1012
22 15:50 西北西 4 10km以上 -2 69 1012
22 15:20 北西 5 10km以上 -3 74 1012
22 14:50 北西 5 10km以上 -1 69 1012
22 14:20 北北西 4 10km以上 -3 74 1011
22 13:50 北西 6 10km以上 -3 80 1011
22 13:20 北西 4 10km以上 -2 74 1010
22 12:50 北西 5 10km以上 -1 69 1010
22 12:20 北西 6 10km以上 -2 69 1009
22 11:50 北西 5 10km以上 -2 69 1009
22 11:20 西北西 3 10km以上 -2 69 1008
22 10:50 西北西 2 10km以上 -2 69 1008
22 10:20 西北西 2 10km以上 -3 68 1007
22 09:50 西北西 4 10km以上 -3 74 1007
22 09:20 西北西 4 10km以上 -3 74 1006
22 08:50 北西 5 10km以上 -3 74 1005
22 08:20 北北西 5 10km以上 -4 80 1005
22 07:50 北北西 5 10km以上 -3 74 1004
22 07:20 北北西 6 10km以上 -4 80 1003
22 06:50 北北西 7 10km以上 -3 74 1002
22 06:20 北北西 7 10km以上 -2 69 1001
22 05:50 北北西 6 10km以上 -2 69 1000
22 05:20 北北西 7 10km以上 -2 74 1000
22 04:50 北西 8 10km以上 -2 74 998
22 04:20 北西 8 10km以上 -2 74 998
22 03:50 北西 7 10km以上 -1 69 997
22 03:20 北西 5 10km以上 -2 74 996
22 02:50 北西 6 10km以上 -1 69 996
22 02:20 北西 8 10km以上 -1 69 995
22 01:50 北西 9 10km以上 0 64 995
22 01:20 北西 7 10km以上 0 64 995
22 00:50 西北西 8 10km以上 0 64 994
22 00:20 西北西 8 10km以上 0 64 994
21 23:50 西北西 7 10km以上 1 60 994
21 23:20 西北西 8 10km以上 1 60 993
21 22:50 西北西 9 10km以上 0 64 993
21 22:20 西北西 8 10km以上 0 64 993
21 21:50 西北西 8 10km以上 0 64 993
21 21:20 西北西 8 10km以上 0 64 993
21 20:50 西北西 9 10km以上 0 64 993
ESPA 230250Z AUTO 00000KT 9999 NCD M05/M08 Q1012
ESPA 230220Z AUTO 29007KT 9999 NCD M03/M07 Q1012
ESPA 230150Z AUTO 29008KT 9999 NCD M03/M07 Q1013
ESPA 230120Z AUTO 31009KT 9999 NCD M03/M07 Q1013
ESPA 230050Z AUTO 30008KT 9999 NCD M03/M07 Q1014
ESPA 230020Z AUTO 30008KT 9999 NCD M03/M07 Q1014
ESPA 222350Z AUTO 31009KT 9999 NCD M04/M08 Q1013
ESPA 222320Z AUTO 30010KT 9999 NCD M03/M08 Q1013
ESPA 222250Z 30008KT CAVOK M04/M08 Q1014
ESPA 222220Z 29006KT CAVOK M04/M08 Q1013
ESPA 222150Z 29006KT CAVOK M04/M08 Q1013
ESPA 222120Z 31006KT CAVOK M04/M09 Q1013
ESPA 222050Z 31010KT CAVOK M04/M09 Q1013
ESPA 222020Z 31012KT CAVOK M04/M09 Q1013
ESPA 221950Z 31006KT CAVOK M04/M09 Q1013
ESPA 221920Z 32005KT CAVOK M04/M10 Q1013
ESPA 221850Z 30006KT CAVOK M04/M09 Q1014
ESPA 221820Z 29007KT CAVOK M03/M09 Q1014
ESPA 221750Z 31008KT CAVOK M03/M09 Q1013
ESPA 221720Z 31006KT CAVOK M03/M09 Q1013
ESPA 221650Z 31006KT CAVOK M03/M09 Q1013
ESPA 221620Z 32008KT CAVOK M03/M08 Q1013
ESPA 221550Z 31009KT CAVOK M02/M07 Q1013
ESPA 221520Z 31009KT CAVOK M03/M07 Q1012
ESPA 221450Z 30007KT CAVOK M02/M07 Q1012
ESPA 221420Z 31009KT CAVOK M03/M07 Q1012
ESPA 221350Z 32009KT CAVOK M01/M06 Q1012
ESPA 221320Z 33008KT CAVOK M03/M07 Q1011
ESPA 221250Z 32011KT CAVOK M03/M06 Q1011
ESPA 221220Z 32007KT CAVOK M02/M06 Q1010
ESPA 221150Z 32010KT CAVOK M01/M06 Q1010
ESPA 221120Z 31011KT CAVOK M02/M07 Q1009
ESPA 221050Z 32009KT 9999 FEW040 BKN050 M02/M07 Q1009
ESPA 221020Z 30005KT CAVOK M02/M07 Q1008
ESPA 220950Z 29004KT CAVOK M02/M07 Q1008
ESPA 220920Z 29004KT CAVOK M03/M08 Q1007
ESPA 220850Z 30007KT CAVOK M03/M07 Q1007
ESPA 220820Z 30007KT CAVOK M03/M07 Q1006
ESPA 220750Z 32009KT CAVOK M03/M07 Q1005
ESPA 220720Z 33010KT 9999 FEW032 M04/M07 Q1005
ESPA 220650Z 33009KT 9999 FEW043 SCT055 M03/M07 Q1004
ESPA 220620Z 33012KT CAVOK M04/M07 Q1003
ESPA 220550Z 33013KT CAVOK M03/M07 Q1002
ESPA 220520Z 33014KT CAVOK M02/M07 Q1001
ESPA 220450Z 33012KT CAVOK M02/M07 Q1000
ESPA 220420Z AUTO 34014KT 9999 NCD M02/M06 Q1000
ESPA 220350Z AUTO 32015KT 9999 NCD M02/M06 Q0998
ESPA 220320Z AUTO 32016KT 9999 NCD M02/M06 Q0998
ESPA 220250Z AUTO 32014KT 9999 NCD M01/M06 Q0997
ESPA 220220Z AUTO 32010KT 9999 NCD M02/M06 Q0996
ESPA 220150Z AUTO 31012KT 9999 NCD M01/M06 Q0996
ESPA 220120Z AUTO 32015KT 9999 NCD M01/M06 Q0995
ESPA 220050Z AUTO 31017KT 9999 NCD M00/M06 Q0995
ESPA 220020Z AUTO 31014KT 9999 OVC096/// 00/M06 Q0995
ESPA 212350Z AUTO 30015KT 9999 BKN110/// 00/M06 Q0994
ESPA 212320Z AUTO 30015KT 9999 BKN120/// 00/M06 Q0994
ESPA 212250Z 29014KT CAVOK 01/M06 Q0994
ESPA 212220Z 30016KT CAVOK 01/M06 Q0993
ESPA 212150Z 29017KT CAVOK 00/M06 Q0993
ESPA 212120Z 29015KT CAVOK 00/M06 Q0993
ESPA 212050Z 30015KT CAVOK 00/M06 Q0993
ESPA 212020Z 29016KT CAVOK 00/M06 Q0993
ESPA 211950Z 29018KT CAVOK 00/M06 Q0993